sensor_id;sensor_type;location;lat;lon;timestamp;P1;durP1;ratioP1;P2;durP2;ratioP2
9056;SDS011;4563;54.756;9.400;2022-10-16T00:00:35;4.23;;;1.10;;
9056;SDS011;4563;54.756;9.400;2022-10-16T00:03:03;9.73;;;1.40;;
9056;SDS011;4563;54.756;9.400;2022-10-16T00:05:31;4.20;;;1.27;;
9056;SDS011;4563;54.756;9.400;2022-10-16T00:07:58;2.77;;;1.30;;
9056;SDS011;4563;54.756;9.400;2022-10-16T00:10:25;3.77;;;1.40;;
9056;SDS011;4563;54.756;9.400;2022-10-16T00:12:53;5.27;;;1.50;;
9056;SDS011;4563;54.756;9.400;2022-10-16T00:15:20;2.17;;;1.70;;
9056;SDS011;4563;54.756;9.400;2022-10-16T00:17:46;2.53;;;1.17;;
9056;SDS011;4563;54.756;9.400;2022-10-16T00:20:13;6.13;;;1.40;;
9056;SDS011;4563;54.756;9.400;2022-10-16T00:22:40;4.23;;;1.27;;
9056;SDS011;4563;54.756;9.400;2022-10-16T00:25:07;5.00;;;1.20;;
9056;SDS011;4563;54.756;9.400;2022-10-16T00:27:34;2.73;;;1.20;;
9056;SDS011;4563;54.756;9.400;2022-10-16T00:30:03;3.73;;;0.90;;
9056;SDS011;4563;54.756;9.400;2022-10-16T00:32:30;1.87;;;1.10;;
9056;SDS011;4563;54.756;9.400;2022-10-16T00:34:57;3.83;;;0.97;;
9056;SDS011;4563;54.756;9.400;2022-10-16T00:37:24;3.97;;;0.97;;
9056;SDS011;4563;54.756;9.400;2022-10-16T00:39:51;5.20;;;1.10;;
9056;SDS011;4563;54.756;9.400;2022-10-16T00:42:17;4.70;;;1.10;;
9056;SDS011;4563;54.756;9.400;2022-10-16T00:44:46;10.40;;;1.10;;
9056;SDS011;4563;54.756;9.400;2022-10-16T00:47:19;1.60;;;0.87;;
9056;SDS011;4563;54.756;9.400;2022-10-16T00:49:51;4.33;;;0.83;;
9056;SDS011;4563;54.756;9.400;2022-10-16T00:52:22;4.47;;;0.90;;
9056;SDS011;4563;54.756;9.400;2022-10-16T00:54:49;5.33;;;1.00;;
9056;SDS011;4563;54.756;9.400;2022-10-16T00:57:18;2.97;;;0.63;;
9056;SDS011;4563;54.756;9.400;2022-10-16T00:59:45;3.60;;;0.57;;
9056;SDS011;4563;54.756;9.400;2022-10-16T01:02:12;4.13;;;0.50;;
9056;SDS011;4563;54.756;9.400;2022-10-16T01:04:43;3.87;;;0.60;;
9056;SDS011;4563;54.756;9.400;2022-10-16T01:07:13;4.73;;;0.73;;
9056;SDS011;4563;54.756;9.400;2022-10-16T01:09:51;5.67;;;0.80;;
9056;SDS011;4563;54.756;9.400;2022-10-16T01:12:27;4.17;;;0.70;;
9056;SDS011;4563;54.756;9.400;2022-10-16T01:15:01;5.03;;;0.60;;
9056;SDS011;4563;54.756;9.400;2022-10-16T01:17:38;4.43;;;0.57;;
9056;SDS011;4563;54.756;9.400;2022-10-16T01:20:11;2.60;;;0.50;;
9056;SDS011;4563;54.756;9.400;2022-10-16T01:22:54;4.77;;;0.90;;
9056;SDS011;4563;54.756;9.400;2022-10-16T01:25:31;3.30;;;0.87;;
9056;SDS011;4563;54.756;9.400;2022-10-16T01:28:07;4.57;;;0.73;;
9056;SDS011;4563;54.756;9.400;2022-10-16T01:30:37;4.60;;;0.50;;
9056;SDS011;4563;54.756;9.400;2022-10-16T01:33:06;7.77;;;0.80;;
9056;SDS011;4563;54.756;9.400;2022-10-16T01:35:39;9.57;;;0.80;;
9056;SDS011;4563;54.756;9.400;2022-10-16T01:38:10;4.23;;;0.90;;
9056;SDS011;4563;54.756;9.400;2022-10-16T01:40:43;1.50;;;0.57;;
9056;SDS011;4563;54.756;9.400;2022-10-16T01:43:14;4.20;;;0.70;;
9056;SDS011;4563;54.756;9.400;2022-10-16T01:45:45;2.53;;;0.70;;
9056;SDS011;4563;54.756;9.400;2022-10-16T01:48:14;2.30;;;0.63;;
9056;SDS011;4563;54.756;9.400;2022-10-16T01:50:44;3.43;;;0.70;;
9056;SDS011;4563;54.756;9.400;2022-10-16T01:53:23;4.90;;;0.87;;
9056;SDS011;4563;54.756;9.400;2022-10-16T01:55:52;4.93;;;0.90;;
9056;SDS011;4563;54.756;9.400;2022-10-16T01:58:22;6.67;;;0.90;;
9056;SDS011;4563;54.756;9.400;2022-10-16T02:00:51;3.43;;;0.83;;
9056;SDS011;4563;54.756;9.400;2022-10-16T02:03:20;3.90;;;0.80;;
9056;SDS011;4563;54.756;9.400;2022-10-16T02:05:48;6.93;;;0.73;;
9056;SDS011;4563;54.756;9.400;2022-10-16T02:08:17;3.97;;;0.70;;
9056;SDS011;4563;54.756;9.400;2022-10-16T02:10:44;1.63;;;0.60;;
9056;SDS011;4563;54.756;9.400;2022-10-16T02:13:13;3.40;;;0.90;;
9056;SDS011;4563;54.756;9.400;2022-10-16T02:15:46;6.37;;;0.90;;
9056;SDS011;4563;54.756;9.400;2022-10-16T02:18:13;4.23;;;0.80;;
9056;SDS011;4563;54.756;9.400;2022-10-16T02:20:42;2.43;;;0.90;;
9056;SDS011;4563;54.756;9.400;2022-10-16T02:23:23;2.83;;;0.70;;
9056;SDS011;4563;54.756;9.400;2022-10-16T02:25:55;4.33;;;0.70;;
9056;SDS011;4563;54.756;9.400;2022-10-16T02:28:27;2.00;;;0.60;;
9056;SDS011;4563;54.756;9.400;2022-10-16T02:31:02;2.10;;;0.67;;
9056;SDS011;4563;54.756;9.400;2022-10-16T02:33:34;2.47;;;0.73;;
9056;SDS011;4563;54.756;9.400;2022-10-16T02:36:03;1.67;;;0.60;;
9056;SDS011;4563;54.756;9.400;2022-10-16T02:38:30;3.60;;;0.80;;
9056;SDS011;4563;54.756;9.400;2022-10-16T02:40:57;2.40;;;0.83;;
9056;SDS011;4563;54.756;9.400;2022-10-16T02:43:25;5.50;;;0.67;;
9056;SDS011;4563;54.756;9.400;2022-10-16T02:45:51;4.57;;;0.80;;
9056;SDS011;4563;54.756;9.400;2022-10-16T02:48:20;4.20;;;0.70;;
9056;SDS011;4563;54.756;9.400;2022-10-16T02:50:46;2.37;;;0.60;;
9056;SDS011;4563;54.756;9.400;2022-10-16T02:53:13;2.37;;;1.03;;
9056;SDS011;4563;54.756;9.400;2022-10-16T02:55:40;4.50;;;0.83;;
9056;SDS011;4563;54.756;9.400;2022-10-16T02:58:07;6.60;;;0.63;;
9056;SDS011;4563;54.756;9.400;2022-10-16T03:00:33;4.17;;;0.80;;
9056;SDS011;4563;54.756;9.400;2022-10-16T03:03:00;3.50;;;0.90;;
9056;SDS011;4563;54.756;9.400;2022-10-16T03:05:28;5.50;;;0.73;;
9056;SDS011;4563;54.756;9.400;2022-10-16T03:07:55;6.90;;;0.70;;
9056;SDS011;4563;54.756;9.400;2022-10-16T03:10:25;4.00;;;0.50;;
9056;SDS011;4563;54.756;9.400;2022-10-16T03:12:51;8.37;;;0.73;;
9056;SDS011;4563;54.756;9.400;2022-10-16T03:15:18;2.77;;;0.60;;
9056;SDS011;4563;54.756;9.400;2022-10-16T03:17:45;7.67;;;0.73;;
9056;SDS011;4563;54.756;9.400;2022-10-16T03:20:12;1.47;;;0.67;;
9056;SDS011;4563;54.756;9.400;2022-10-16T03:22:40;3.37;;;0.60;;
9056;SDS011;4563;54.756;9.400;2022-10-16T03:25:07;1.87;;;0.57;;
9056;SDS011;4563;54.756;9.400;2022-10-16T03:27:34;3.73;;;0.63;;
9056;SDS011;4563;54.756;9.400;2022-10-16T03:30:01;2.77;;;0.67;;
9056;SDS011;4563;54.756;9.400;2022-10-16T03:32:28;5.03;;;0.70;;
9056;SDS011;4563;54.756;9.400;2022-10-16T03:34:55;1.73;;;0.50;;
9056;SDS011;4563;54.756;9.400;2022-10-16T03:37:22;5.07;;;0.70;;
9056;SDS011;4563;54.756;9.400;2022-10-16T03:39:50;5.90;;;0.60;;
9056;SDS011;4563;54.756;9.400;2022-10-16T03:42:17;4.97;;;0.60;;
9056;SDS011;4563;54.756;9.400;2022-10-16T03:44:44;4.23;;;0.50;;
9056;SDS011;4563;54.756;9.400;2022-10-16T03:47:11;2.40;;;0.47;;
9056;SDS011;4563;54.756;9.400;2022-10-16T03:49:37;6.60;;;0.70;;
9056;SDS011;4563;54.756;9.400;2022-10-16T03:52:04;2.20;;;0.47;;
9056;SDS011;4563;54.756;9.400;2022-10-16T03:54:31;3.90;;;0.93;;
9056;SDS011;4563;54.756;9.400;2022-10-16T03:56:59;2.50;;;0.70;;
9056;SDS011;4563;54.756;9.400;2022-10-16T03:59:26;3.73;;;0.80;;
9056;SDS011;4563;54.756;9.400;2022-10-16T04:01:52;3.80;;;0.67;;
9056;SDS011;4563;54.756;9.400;2022-10-16T04:04:19;1.40;;;0.50;;
9056;SDS011;4563;54.756;9.400;2022-10-16T04:06:46;2.53;;;0.50;;
9056;SDS011;4563;54.756;9.400;2022-10-16T04:09:13;8.47;;;0.93;;
9056;SDS011;4563;54.756;9.400;2022-10-16T04:11:40;7.00;;;0.60;;
9056;SDS011;4563;54.756;9.400;2022-10-16T04:14:08;8.53;;;0.40;;
9056;SDS011;4563;54.756;9.400;2022-10-16T04:16:34;7.20;;;0.80;;
9056;SDS011;4563;54.756;9.400;2022-10-16T04:19:01;3.10;;;0.70;;
9056;SDS011;4563;54.756;9.400;2022-10-16T04:21:28;2.43;;;0.70;;
9056;SDS011;4563;54.756;9.400;2022-10-16T04:23:55;2.23;;;0.47;;
9056;SDS011;4563;54.756;9.400;2022-10-16T04:26:21;2.60;;;0.53;;
9056;SDS011;4563;54.756;9.400;2022-10-16T04:28:48;2.87;;;0.90;;
9056;SDS011;4563;54.756;9.400;2022-10-16T04:31:16;3.27;;;0.50;;
9056;SDS011;4563;54.756;9.400;2022-10-16T04:33:43;2.57;;;0.60;;
9056;SDS011;4563;54.756;9.400;2022-10-16T04:36:10;1.93;;;0.63;;
9056;SDS011;4563;54.756;9.400;2022-10-16T04:38:37;4.97;;;0.53;;
9056;SDS011;4563;54.756;9.400;2022-10-16T04:41:04;4.03;;;0.63;;
9056;SDS011;4563;54.756;9.400;2022-10-16T04:43:32;2.50;;;0.40;;
9056;SDS011;4563;54.756;9.400;2022-10-16T04:45:59;2.13;;;0.57;;
9056;SDS011;4563;54.756;9.400;2022-10-16T04:48:28;2.50;;;0.97;;
9056;SDS011;4563;54.756;9.400;2022-10-16T04:50:54;2.60;;;0.60;;
9056;SDS011;4563;54.756;9.400;2022-10-16T04:53:21;2.30;;;0.63;;
9056;SDS011;4563;54.756;9.400;2022-10-16T04:55:48;3.10;;;0.40;;
9056;SDS011;4563;54.756;9.400;2022-10-16T04:58:15;5.33;;;0.60;;
9056;SDS011;4563;54.756;9.400;2022-10-16T05:00:42;1.87;;;0.50;;
9056;SDS011;4563;54.756;9.400;2022-10-16T05:03:11;0.70;;;0.33;;
9056;SDS011;4563;54.756;9.400;2022-10-16T05:05:43;3.50;;;0.83;;
9056;SDS011;4563;54.756;9.400;2022-10-16T05:08:10;3.73;;;0.57;;
9056;SDS011;4563;54.756;9.400;2022-10-16T05:10:38;1.30;;;0.67;;
9056;SDS011;4563;54.756;9.400;2022-10-16T05:13:05;3.83;;;0.57;;
9056;SDS011;4563;54.756;9.400;2022-10-16T05:15:32;6.87;;;0.60;;
9056;SDS011;4563;54.756;9.400;2022-10-16T05:17:59;2.07;;;0.50;;
9056;SDS011;4563;54.756;9.400;2022-10-16T05:20:26;1.90;;;0.50;;
9056;SDS011;4563;54.756;9.400;2022-10-16T05:22:54;3.03;;;0.80;;
9056;SDS011;4563;54.756;9.400;2022-10-16T05:25:21;6.07;;;0.87;;
9056;SDS011;4563;54.756;9.400;2022-10-16T05:27:48;5.67;;;0.60;;
9056;SDS011;4563;54.756;9.400;2022-10-16T05:30:15;6.10;;;0.70;;
9056;SDS011;4563;54.756;9.400;2022-10-16T05:32:46;4.50;;;0.70;;
9056;SDS011;4563;54.756;9.400;2022-10-16T05:35:14;1.30;;;0.60;;
9056;SDS011;4563;54.756;9.400;2022-10-16T05:37:41;3.03;;;0.60;;
9056;SDS011;4563;54.756;9.400;2022-10-16T05:40:09;2.30;;;0.53;;
9056;SDS011;4563;54.756;9.400;2022-10-16T05:42:37;3.23;;;0.50;;
9056;SDS011;4563;54.756;9.400;2022-10-16T05:45:05;5.53;;;0.60;;
9056;SDS011;4563;54.756;9.400;2022-10-16T05:47:33;2.80;;;0.60;;
9056;SDS011;4563;54.756;9.400;2022-10-16T05:49:59;4.33;;;0.87;;
9056;SDS011;4563;54.756;9.400;2022-10-16T05:52:26;4.17;;;0.73;;
9056;SDS011;4563;54.756;9.400;2022-10-16T05:54:53;2.30;;;0.70;;
9056;SDS011;4563;54.756;9.400;2022-10-16T05:57:21;3.70;;;0.67;;
9056;SDS011;4563;54.756;9.400;2022-10-16T05:59:48;2.57;;;0.67;;
9056;SDS011;4563;54.756;9.400;2022-10-16T06:02:15;3.03;;;0.60;;
9056;SDS011;4563;54.756;9.400;2022-10-16T06:04:42;2.80;;;0.63;;
9056;SDS011;4563;54.756;9.400;2022-10-16T06:07:08;3.23;;;0.60;;
9056;SDS011;4563;54.756;9.400;2022-10-16T06:09:35;2.93;;;0.80;;
9056;SDS011;4563;54.756;9.400;2022-10-16T06:12:02;1.70;;;0.40;;
9056;SDS011;4563;54.756;9.400;2022-10-16T06:14:32;1.57;;;0.53;;
9056;SDS011;4563;54.756;9.400;2022-10-16T06:16:58;2.83;;;0.50;;
9056;SDS011;4563;54.756;9.400;2022-10-16T06:19:25;1.70;;;0.60;;
9056;SDS011;4563;54.756;9.400;2022-10-16T06:21:52;5.93;;;0.60;;
9056;SDS011;4563;54.756;9.400;2022-10-16T06:24:19;3.67;;;0.63;;
9056;SDS011;4563;54.756;9.400;2022-10-16T06:26:45;6.90;;;0.60;;
9056;SDS011;4563;54.756;9.400;2022-10-16T06:29:12;1.70;;;0.50;;
9056;SDS011;4563;54.756;9.400;2022-10-16T06:31:40;5.57;;;0.47;;
9056;SDS011;4563;54.756;9.400;2022-10-16T06:34:08;0.87;;;0.40;;
9056;SDS011;4563;54.756;9.400;2022-10-16T06:36:36;2.20;;;0.90;;
9056;SDS011;4563;54.756;9.400;2022-10-16T06:39:03;4.37;;;0.70;;
9056;SDS011;4563;54.756;9.400;2022-10-16T06:41:32;4.90;;;0.50;;
9056;SDS011;4563;54.756;9.400;2022-10-16T06:43:59;2.73;;;0.60;;
9056;SDS011;4563;54.756;9.400;2022-10-16T06:46:26;1.37;;;0.43;;
9056;SDS011;4563;54.756;9.400;2022-10-16T06:48:55;2.53;;;0.50;;
9056;SDS011;4563;54.756;9.400;2022-10-16T06:51:22;2.90;;;0.40;;
9056;SDS011;4563;54.756;9.400;2022-10-16T06:53:50;1.50;;;0.50;;
9056;SDS011;4563;54.756;9.400;2022-10-16T06:56:20;3.00;;;0.50;;
9056;SDS011;4563;54.756;9.400;2022-10-16T06:58:49;4.67;;;0.90;;
9056;SDS011;4563;54.756;9.400;2022-10-16T07:01:17;3.70;;;0.50;;
9056;SDS011;4563;54.756;9.400;2022-10-16T07:03:45;2.10;;;0.60;;
9056;SDS011;4563;54.756;9.400;2022-10-16T07:06:14;0.87;;;0.40;;
9056;SDS011;4563;54.756;9.400;2022-10-16T07:08:47;1.80;;;0.50;;
9056;SDS011;4563;54.756;9.400;2022-10-16T07:11:14;8.77;;;0.73;;
9056;SDS011;4563;54.756;9.400;2022-10-16T07:13:43;2.77;;;0.50;;
9056;SDS011;4563;54.756;9.400;2022-10-16T07:16:11;3.10;;;0.70;;
9056;SDS011;4563;54.756;9.400;2022-10-16T07:18:42;6.93;;;0.93;;
9056;SDS011;4563;54.756;9.400;2022-10-16T07:21:15;2.43;;;0.50;;
9056;SDS011;4563;54.756;9.400;2022-10-16T07:26:46;3.13;;;0.60;;
9056;SDS011;4563;54.756;9.400;2022-10-16T07:29:14;8.50;;;0.70;;
9056;SDS011;4563;54.756;9.400;2022-10-16T07:31:43;2.63;;;0.50;;
9056;SDS011;4563;54.756;9.400;2022-10-16T07:34:10;6.70;;;0.70;;
9056;SDS011;4563;54.756;9.400;2022-10-16T07:36:39;4.17;;;0.90;;
9056;SDS011;4563;54.756;9.400;2022-10-16T07:39:06;4.07;;;1.00;;
9056;SDS011;4563;54.756;9.400;2022-10-16T07:41:33;3.40;;;0.50;;
9056;SDS011;4563;54.756;9.400;2022-10-16T07:44:01;1.57;;;0.50;;
9056;SDS011;4563;54.756;9.400;2022-10-16T07:46:28;5.93;;;0.80;;
9056;SDS011;4563;54.756;9.400;2022-10-16T07:48:56;2.47;;;0.60;;
9056;SDS011;4563;54.756;9.400;2022-10-16T07:51:23;1.77;;;0.43;;
9056;SDS011;4563;54.756;9.400;2022-10-16T07:53:53;2.30;;;0.70;;
9056;SDS011;4563;54.756;9.400;2022-10-16T07:56:20;0.70;;;0.40;;
9056;SDS011;4563;54.756;9.400;2022-10-16T07:58:48;3.13;;;0.53;;
9056;SDS011;4563;54.756;9.400;2022-10-16T08:01:16;2.10;;;0.53;;
9056;SDS011;4563;54.756;9.400;2022-10-16T08:03:44;4.30;;;0.80;;
9056;SDS011;4563;54.756;9.400;2022-10-16T08:06:11;6.53;;;0.80;;
9056;SDS011;4563;54.756;9.400;2022-10-16T08:08:39;2.77;;;0.50;;
9056;SDS011;4563;54.756;9.400;2022-10-16T08:11:07;2.90;;;0.50;;
9056;SDS011;4563;54.756;9.400;2022-10-16T08:13:34;2.33;;;0.60;;
9056;SDS011;4563;54.756;9.400;2022-10-16T08:16:01;2.47;;;0.50;;
9056;SDS011;4563;54.756;9.400;2022-10-16T08:18:32;2.73;;;0.70;;
9056;SDS011;4563;54.756;9.400;2022-10-16T08:21:00;4.73;;;0.70;;
9056;SDS011;4563;54.756;9.400;2022-10-16T08:23:27;5.53;;;0.47;;
9056;SDS011;4563;54.756;9.400;2022-10-16T08:25:54;1.57;;;0.40;;
9056;SDS011;4563;54.756;9.400;2022-10-16T08:28:23;1.67;;;0.60;;
9056;SDS011;4563;54.756;9.400;2022-10-16T08:30:49;1.27;;;0.63;;
9056;SDS011;4563;54.756;9.400;2022-10-16T08:33:16;2.60;;;0.40;;
9056;SDS011;4563;54.756;9.400;2022-10-16T08:35:49;6.13;;;2.63;;
9056;SDS011;4563;54.756;9.400;2022-10-16T08:38:17;7.73;;;0.63;;
9056;SDS011;4563;54.756;9.400;2022-10-16T08:40:44;3.03;;;0.40;;
9056;SDS011;4563;54.756;9.400;2022-10-16T08:43:16;7.87;;;0.80;;
9056;SDS011;4563;54.756;9.400;2022-10-16T08:46:02;1.53;;;0.50;;
9056;SDS011;4563;54.756;9.400;2022-10-16T08:48:52;3.73;;;0.70;;
9056;SDS011;4563;54.756;9.400;2022-10-16T08:51:21;2.00;;;0.43;;
9056;SDS011;4563;54.756;9.400;2022-10-16T08:53:52;2.23;;;0.57;;
9056;SDS011;4563;54.756;9.400;2022-10-16T08:56:21;4.20;;;0.60;;
9056;SDS011;4563;54.756;9.400;2022-10-16T08:58:50;3.07;;;0.60;;
9056;SDS011;4563;54.756;9.400;2022-10-16T09:01:19;3.57;;;0.60;;
9056;SDS011;4563;54.756;9.400;2022-10-16T09:03:52;1.77;;;0.43;;
9056;SDS011;4563;54.756;9.400;2022-10-16T09:06:47;4.10;;;0.47;;
9056;SDS011;4563;54.756;9.400;2022-10-16T09:09:23;0.83;;;0.30;;
9056;SDS011;4563;54.756;9.400;2022-10-16T09:12:04;7.47;;;1.90;;
9056;SDS011;4563;54.756;9.400;2022-10-16T09:14:43;3.43;;;0.83;;
9056;SDS011;4563;54.756;9.400;2022-10-16T09:20:18;6.10;;;1.10;;
9056;SDS011;4563;54.756;9.400;2022-10-16T09:22:50;5.50;;;0.70;;
9056;SDS011;4563;54.756;9.400;2022-10-16T09:25:21;5.00;;;0.63;;
9056;SDS011;4563;54.756;9.400;2022-10-16T09:27:51;2.80;;;0.53;;
9056;SDS011;4563;54.756;9.400;2022-10-16T09:30:20;6.50;;;0.70;;
9056;SDS011;4563;54.756;9.400;2022-10-16T09:32:49;4.93;;;0.83;;
9056;SDS011;4563;54.756;9.400;2022-10-16T09:35:19;7.17;;;0.90;;
9056;SDS011;4563;54.756;9.400;2022-10-16T09:37:48;5.23;;;1.00;;
9056;SDS011;4563;54.756;9.400;2022-10-16T09:40:24;10.27;;;0.90;;
9056;SDS011;4563;54.756;9.400;2022-10-16T09:42:53;2.50;;;0.50;;
9056;SDS011;4563;54.756;9.400;2022-10-16T09:45:28;3.77;;;0.80;;
9056;SDS011;4563;54.756;9.400;2022-10-16T09:47:55;3.57;;;0.67;;
9056;SDS011;4563;54.756;9.400;2022-10-16T09:50:23;2.37;;;1.03;;
9056;SDS011;4563;54.756;9.400;2022-10-16T09:53:02;5.50;;;1.37;;
9056;SDS011;4563;54.756;9.400;2022-10-16T09:55:30;5.10;;;0.80;;
9056;SDS011;4563;54.756;9.400;2022-10-16T09:57:56;8.37;;;1.03;;
9056;SDS011;4563;54.756;9.400;2022-10-16T10:00:24;3.00;;;0.70;;
9056;SDS011;4563;54.756;9.400;2022-10-16T10:02:52;3.77;;;0.60;;
9056;SDS011;4563;54.756;9.400;2022-10-16T10:05:21;6.43;;;1.47;;
9056;SDS011;4563;54.756;9.400;2022-10-16T10:07:53;3.60;;;0.93;;
9056;SDS011;4563;54.756;9.400;2022-10-16T10:10:23;3.17;;;0.70;;
9056;SDS011;4563;54.756;9.400;2022-10-16T10:12:51;8.33;;;1.07;;
9056;SDS011;4563;54.756;9.400;2022-10-16T10:15:19;6.57;;;0.80;;
9056;SDS011;4563;54.756;9.400;2022-10-16T10:17:50;5.67;;;0.93;;
9056;SDS011;4563;54.756;9.400;2022-10-16T10:20:24;4.63;;;0.80;;
9056;SDS011;4563;54.756;9.400;2022-10-16T10:22:53;7.33;;;0.93;;
9056;SDS011;4563;54.756;9.400;2022-10-16T10:25:26;5.93;;;0.80;;
9056;SDS011;4563;54.756;9.400;2022-10-16T10:28:15;4.13;;;0.70;;
9056;SDS011;4563;54.756;9.400;2022-10-16T10:30:54;7.93;;;1.00;;
9056;SDS011;4563;54.756;9.400;2022-10-16T10:33:28;5.30;;;0.97;;
9056;SDS011;4563;54.756;9.400;2022-10-16T10:36:06;7.83;;;1.20;;
9056;SDS011;4563;54.756;9.400;2022-10-16T10:38:45;8.50;;;1.53;;
9056;SDS011;4563;54.756;9.400;2022-10-16T10:41:21;8.30;;;1.17;;
9056;SDS011;4563;54.756;9.400;2022-10-16T10:44:21;7.00;;;1.13;;
9056;SDS011;4563;54.756;9.400;2022-10-16T10:46:56;8.40;;;1.87;;
9056;SDS011;4563;54.756;9.400;2022-10-16T10:49:34;6.67;;;1.60;;
9056;SDS011;4563;54.756;9.400;2022-10-16T10:52:13;4.97;;;1.30;;
9056;SDS011;4563;54.756;9.400;2022-10-16T10:54:59;8.80;;;0.93;;
9056;SDS011;4563;54.756;9.400;2022-10-16T10:57:36;6.30;;;1.57;;
9056;SDS011;4563;54.756;9.400;2022-10-16T11:00:17;14.23;;;1.90;;
9056;SDS011;4563;54.756;9.400;2022-10-16T11:02:50;8.73;;;1.20;;
9056;SDS011;4563;54.756;9.400;2022-10-16T11:05:35;11.03;;;1.30;;
9056;SDS011;4563;54.756;9.400;2022-10-16T11:08:09;5.00;;;1.27;;
9056;SDS011;4563;54.756;9.400;2022-10-16T11:10:46;10.90;;;1.40;;
9056;SDS011;4563;54.756;9.400;2022-10-16T11:13:23;6.73;;;0.90;;
9056;SDS011;4563;54.756;9.400;2022-10-16T11:15:57;7.13;;;1.10;;
9056;SDS011;4563;54.756;9.400;2022-10-16T11:18:27;7.63;;;1.30;;
9056;SDS011;4563;54.756;9.400;2022-10-16T11:21:05;5.97;;;1.20;;
9056;SDS011;4563;54.756;9.400;2022-10-16T11:23:38;7.23;;;1.70;;
9056;SDS011;4563;54.756;9.400;2022-10-16T11:26:10;5.37;;;0.90;;
9056;SDS011;4563;54.756;9.400;2022-10-16T11:28:42;9.67;;;1.27;;
9056;SDS011;4563;54.756;9.400;2022-10-16T11:31:13;11.23;;;1.33;;
9056;SDS011;4563;54.756;9.400;2022-10-16T11:33:45;7.47;;;0.87;;
9056;SDS011;4563;54.756;9.400;2022-10-16T11:36:19;7.03;;;0.90;;
9056;SDS011;4563;54.756;9.400;2022-10-16T11:38:51;9.87;;;1.13;;
9056;SDS011;4563;54.756;9.400;2022-10-16T11:41:26;4.87;;;1.17;;
9056;SDS011;4563;54.756;9.400;2022-10-16T11:44:08;10.30;;;1.67;;
9056;SDS011;4563;54.756;9.400;2022-10-16T11:46:43;13.37;;;1.10;;
9056;SDS011;4563;54.756;9.400;2022-10-16T11:49:17;9.90;;;1.20;;
9056;SDS011;4563;54.756;9.400;2022-10-16T11:51:50;6.27;;;1.00;;
9056;SDS011;4563;54.756;9.400;2022-10-16T11:54:24;5.33;;;0.90;;
9056;SDS011;4563;54.756;9.400;2022-10-16T11:56:59;10.17;;;1.30;;
9056;SDS011;4563;54.756;9.400;2022-10-16T11:59:32;6.27;;;0.93;;
9056;SDS011;4563;54.756;9.400;2022-10-16T12:02:12;16.90;;;1.60;;
9056;SDS011;4563;54.756;9.400;2022-10-16T12:04:56;7.10;;;1.00;;
9056;SDS011;4563;54.756;9.400;2022-10-16T12:07:34;9.00;;;1.40;;
9056;SDS011;4563;54.756;9.400;2022-10-16T12:10:17;7.60;;;1.30;;
9056;SDS011;4563;54.756;9.400;2022-10-16T12:12:47;9.17;;;1.17;;
9056;SDS011;4563;54.756;9.400;2022-10-16T12:15:21;10.93;;;1.40;;
9056;SDS011;4563;54.756;9.400;2022-10-16T12:17:51;11.60;;;1.77;;
9056;SDS011;4563;54.756;9.400;2022-10-16T12:20:20;11.73;;;1.83;;
9056;SDS011;4563;54.756;9.400;2022-10-16T12:22:57;5.77;;;1.10;;
9056;SDS011;4563;54.756;9.400;2022-10-16T12:25:27;12.47;;;1.70;;
9056;SDS011;4563;54.756;9.400;2022-10-16T12:28:06;6.13;;;1.50;;
9056;SDS011;4563;54.756;9.400;2022-10-16T12:30:51;11.90;;;1.67;;
9056;SDS011;4563;54.756;9.400;2022-10-16T12:33:21;8.90;;;1.53;;
9056;SDS011;4563;54.756;9.400;2022-10-16T12:35:49;14.87;;;2.30;;
9056;SDS011;4563;54.756;9.400;2022-10-16T12:38:19;11.27;;;2.00;;
9056;SDS011;4563;54.756;9.400;2022-10-16T12:40:55;8.90;;;1.53;;
9056;SDS011;4563;54.756;9.400;2022-10-16T12:43:26;12.87;;;1.70;;
9056;SDS011;4563;54.756;9.400;2022-10-16T12:46:02;7.40;;;1.47;;
9056;SDS011;4563;54.756;9.400;2022-10-16T12:48:31;15.07;;;1.67;;
9056;SDS011;4563;54.756;9.400;2022-10-16T12:51:09;19.13;;;1.17;;
9056;SDS011;4563;54.756;9.400;2022-10-16T12:53:38;11.23;;;2.17;;
9056;SDS011;4563;54.756;9.400;2022-10-16T12:56:09;12.73;;;1.93;;
9056;SDS011;4563;54.756;9.400;2022-10-16T12:58:46;11.63;;;1.30;;
9056;SDS011;4563;54.756;9.400;2022-10-16T13:01:34;8.87;;;1.17;;
9056;SDS011;4563;54.756;9.400;2022-10-16T13:04:13;5.37;;;1.30;;
9056;SDS011;4563;54.756;9.400;2022-10-16T13:07:01;7.90;;;1.17;;
9056;SDS011;4563;54.756;9.400;2022-10-16T13:09:48;12.20;;;2.23;;
9056;SDS011;4563;54.756;9.400;2022-10-16T13:12:37;13.20;;;1.83;;
9056;SDS011;4563;54.756;9.400;2022-10-16T13:15:25;13.33;;;1.43;;
9056;SDS011;4563;54.756;9.400;2022-10-16T13:18:02;14.37;;;2.33;;
9056;SDS011;4563;54.756;9.400;2022-10-16T13:20:39;10.23;;;1.60;;
9056;SDS011;4563;54.756;9.400;2022-10-16T13:23:19;10.57;;;1.53;;
9056;SDS011;4563;54.756;9.400;2022-10-16T13:26:01;9.77;;;1.70;;
9056;SDS011;4563;54.756;9.400;2022-10-16T13:28:35;8.17;;;1.47;;
9056;SDS011;4563;54.756;9.400;2022-10-16T13:31:05;9.87;;;1.20;;
9056;SDS011;4563;54.756;9.400;2022-10-16T13:33:41;9.93;;;1.47;;
9056;SDS011;4563;54.756;9.400;2022-10-16T13:36:18;9.87;;;2.13;;
9056;SDS011;4563;54.756;9.400;2022-10-16T13:38:47;11.67;;;1.90;;
9056;SDS011;4563;54.756;9.400;2022-10-16T13:41:16;10.37;;;1.87;;
9056;SDS011;4563;54.756;9.400;2022-10-16T13:43:45;12.00;;;2.20;;
9056;SDS011;4563;54.756;9.400;2022-10-16T13:46:15;16.33;;;2.20;;
9056;SDS011;4563;54.756;9.400;2022-10-16T13:48:42;11.07;;;1.67;;
9056;SDS011;4563;54.756;9.400;2022-10-16T13:51:12;10.43;;;1.90;;
9056;SDS011;4563;54.756;9.400;2022-10-16T13:53:40;16.90;;;2.13;;
9056;SDS011;4563;54.756;9.400;2022-10-16T13:56:09;12.10;;;1.60;;
9056;SDS011;4563;54.756;9.400;2022-10-16T13:58:40;14.20;;;1.60;;
9056;SDS011;4563;54.756;9.400;2022-10-16T14:01:15;7.53;;;1.47;;
9056;SDS011;4563;54.756;9.400;2022-10-16T14:03:44;10.27;;;1.80;;
9056;SDS011;4563;54.756;9.400;2022-10-16T14:06:12;13.70;;;2.03;;
9056;SDS011;4563;54.756;9.400;2022-10-16T14:08:43;7.07;;;1.47;;
9056;SDS011;4563;54.756;9.400;2022-10-16T14:11:13;11.83;;;2.43;;
9056;SDS011;4563;54.756;9.400;2022-10-16T14:13:49;10.93;;;1.67;;
9056;SDS011;4563;54.756;9.400;2022-10-16T14:16:16;10.37;;;1.47;;
9056;SDS011;4563;54.756;9.400;2022-10-16T14:18:46;7.83;;;1.60;;
9056;SDS011;4563;54.756;9.400;2022-10-16T14:21:20;10.60;;;1.73;;
9056;SDS011;4563;54.756;9.400;2022-10-16T14:23:47;10.63;;;1.90;;
9056;SDS011;4563;54.756;9.400;2022-10-16T14:26:15;11.37;;;1.57;;
9056;SDS011;4563;54.756;9.400;2022-10-16T14:28:43;11.13;;;1.57;;
9056;SDS011;4563;54.756;9.400;2022-10-16T14:31:22;10.10;;;1.80;;
9056;SDS011;4563;54.756;9.400;2022-10-16T14:33:52;11.33;;;1.83;;
9056;SDS011;4563;54.756;9.400;2022-10-16T14:36:19;8.77;;;1.30;;
9056;SDS011;4563;54.756;9.400;2022-10-16T14:38:48;11.20;;;1.87;;
9056;SDS011;4563;54.756;9.400;2022-10-16T14:41:22;7.47;;;1.47;;
9056;SDS011;4563;54.756;9.400;2022-10-16T14:43:50;7.73;;;1.73;;
9056;SDS011;4563;54.756;9.400;2022-10-16T14:46:19;10.97;;;1.60;;
9056;SDS011;4563;54.756;9.400;2022-10-16T14:48:51;10.17;;;1.80;;
9056;SDS011;4563;54.756;9.400;2022-10-16T14:51:26;10.47;;;1.83;;
9056;SDS011;4563;54.756;9.400;2022-10-16T14:53:53;8.60;;;1.20;;
9056;SDS011;4563;54.756;9.400;2022-10-16T14:56:20;8.97;;;1.60;;
9056;SDS011;4563;54.756;9.400;2022-10-16T14:58:49;10.60;;;2.17;;
9056;SDS011;4563;54.756;9.400;2022-10-16T15:01:17;7.97;;;1.17;;
9056;SDS011;4563;54.756;9.400;2022-10-16T15:03:46;5.97;;;1.37;;
9056;SDS011;4563;54.756;9.400;2022-10-16T15:06:13;12.37;;;0.90;;
9056;SDS011;4563;54.756;9.400;2022-10-16T15:08:41;6.83;;;1.17;;
9056;SDS011;4563;54.756;9.400;2022-10-16T15:11:08;16.43;;;3.47;;
9056;SDS011;4563;54.756;9.400;2022-10-16T15:13:39;4.87;;;1.00;;
9056;SDS011;4563;54.756;9.400;2022-10-16T15:16:07;8.57;;;0.90;;
9056;SDS011;4563;54.756;9.400;2022-10-16T15:18:36;6.27;;;1.40;;
9056;SDS011;4563;54.756;9.400;2022-10-16T15:21:04;7.40;;;1.00;;
9056;SDS011;4563;54.756;9.400;2022-10-16T15:23:32;6.57;;;0.93;;
9056;SDS011;4563;54.756;9.400;2022-10-16T15:25:59;12.23;;;2.30;;
9056;SDS011;4563;54.756;9.400;2022-10-16T15:28:26;15.30;;;2.00;;
9056;SDS011;4563;54.756;9.400;2022-10-16T15:30:53;7.30;;;1.13;;
9056;SDS011;4563;54.756;9.400;2022-10-16T15:33:21;6.93;;;1.10;;
9056;SDS011;4563;54.756;9.400;2022-10-16T15:35:52;7.50;;;1.27;;
9056;SDS011;4563;54.756;9.400;2022-10-16T15:38:21;5.30;;;1.40;;